Time;durP1;ratioP1;P1;durP2;ratioP2;P2;SDS_P1;SDS_P2;PMS_P1;PMS_P2;Temp;Humidity;BMP_temperature;BMP_pressure;BME280_temperature;BME280_humidity;BME280_pressure;Samples;Min_cycle;Max_cycle;Signal;HPM_P1;HPM_P2
2022/02/20 00:00:43;;;;;;;11.57;0.90;;;;;;;4.36;89.66;100801.00;5019359;28;20464;-73
2022/02/20 00:03:08;;;;;;;7.57;1.10;;;;;;;4.40;89.75;100803.13;5035555;28;20488;-71
2022/02/20 00:05:33;;;;;;;6.32;1.15;;;;;;;4.43;89.40;100820.75;5035820;28;20025;-71
2022/02/20 00:07:59;;;;;;;12.93;0.98;;;;;;;4.43;90.35;100822.47;5053430;28;20063;-72
2022/02/20 00:10:25;;;;;;;10.02;1.23;;;;;;;4.44;89.38;100837.69;5053402;28;20123;-71
2022/02/20 00:12:50;;;;;;;5.55;0.90;;;;;;;4.50;88.98;100855.03;5053425;28;20025;-71
2022/02/20 00:15:15;;;;;;;9.10;1.38;;;;;;;4.55;89.21;100869.16;5052792;28;20052;-71
2022/02/20 00:17:41;;;;;;;7.47;1.00;;;;;;;4.59;88.70;100868.69;5052732;28;20061;-71
2022/02/20 00:20:07;;;;;;;7.53;1.33;;;;;;;4.63;88.52;100876.88;5052548;28;20100;-71
2022/02/20 00:22:33;;;;;;;11.80;1.30;;;;;;;4.56;87.91;100876.66;5052613;28;20100;-71
2022/02/20 00:25:00;;;;;;;4.88;0.80;;;;;;;4.50;88.42;100879.81;5054059;28;20025;-71
2022/02/20 00:27:26;;;;;;;7.60;1.00;;;;;;;4.60;88.26;100884.88;5056056;28;20032;-71
2022/02/20 00:29:51;;;;;;;4.68;0.93;;;;;;;4.66;88.04;100890.22;5038235;28;20033;-71
2022/02/20 00:32:17;;;;;;;7.60;1.17;;;;;;;4.68;88.52;100901.09;5055919;28;20111;-70
2022/02/20 00:34:42;;;;;;;8.93;1.30;;;;;;;4.83;87.63;100913.41;5056131;28;20091;-72
2022/02/20 00:37:08;;;;;;;5.95;0.85;;;;;;;4.79;88.41;100920.56;5038015;28;20021;-70
2022/02/20 00:39:33;;;;;;;7.22;1.10;;;;;;;4.72;88.38;100929.81;5055889;28;20025;-70
2022/02/20 00:41:59;;;;;;;8.32;1.35;;;;;;;4.74;87.45;100928.69;5037944;28;20480;-71
2022/02/20 00:44:24;;;;;;;5.07;1.20;;;;;;;4.84;87.58;100933.75;5037784;28;20032;-71
2022/02/20 00:46:50;;;;;;;5.10;1.40;;;;;;;4.87;87.30;100936.03;5055940;28;20032;-72
2022/02/20 00:49:15;;;;;;;8.57;1.80;;;;;;;4.86;88.14;100934.44;5037867;28;20032;-72
2022/02/20 00:51:40;;;;;;;8.60;1.20;;;;;;;4.81;88.32;100944.28;5055802;28;20031;-71
2022/02/20 00:54:08;;;;;;;8.50;1.55;;;;;;;4.78;88.04;100954.81;5055684;28;20052;-71
2022/02/20 00:56:35;;;;;;;4.68;1.20;;;;;;;4.77;88.01;100962.63;5055395;28;20041;-71
2022/02/20 00:59:01;;;;;;;4.55;1.10;;;;;;;4.83;86.98;100970.53;5055575;28;20364;-71
2022/02/20 01:01:26;;;;;;;6.05;0.88;;;;;;;4.86;87.59;100975.41;5037794;28;20379;-70
2022/02/20 01:03:52;;;;;;;4.82;0.90;;;;;;;4.79;87.39;100960.75;5055479;28;20016;-71
2022/02/20 01:06:17;;;;;;;5.38;1.20;;;;;;;4.86;86.89;100964.31;5037641;28;20446;-72
2022/02/20 01:08:43;;;;;;;4.93;1.00;;;;;;;4.89;87.17;100971.72;5037751;28;20090;-72
2022/02/20 01:11:08;;;;;;;7.75;1.30;;;;;;;4.90;86.91;100974.16;5055358;28;20400;-73
2022/02/20 01:13:34;;;;;;;6.55;1.40;;;;;;;4.94;87.41;100974.66;5001088;28;1040902;-72
2022/02/20 01:15:59;;;;;;;4.45;0.80;;;;;;;4.85;88.52;100980.66;5056467;28;20103;-73
2022/02/20 01:18:25;;;;;;;8.45;0.80;;;;;;;4.80;90.05;100981.06;5056434;28;20107;-72
2022/02/20 01:20:50;;;;;;;4.10;0.95;;;;;;;4.76;89.05;100990.00;5038431;28;20488;-72
2022/02/20 01:23:15;;;;;;;5.15;1.23;;;;;;;4.87;88.66;100989.00;5038540;28;20109;-73
2022/02/20 01:25:41;;;;;;;6.63;1.10;;;;;;;4.91;87.94;100991.09;5056462;28;20060;-72
2022/02/20 01:28:06;;;;;;;6.55;1.55;;;;;;;4.97;88.28;100994.84;5038317;28;20027;-73
2022/02/20 01:30:31;;;;;;;5.07;1.00;;;;;;;4.88;87.45;100988.03;5056469;28;20021;-72
2022/02/20 01:32:57;;;;;;;5.30;1.10;;;;;;;4.93;86.89;100996.09;5038299;28;20111;-73
2022/02/20 01:35:22;;;;;;;6.00;0.98;;;;;;;5.00;86.96;100999.69;5055742;28;20021;-72
2022/02/20 01:37:47;;;;;;;4.75;0.80;;;;;;;4.95;85.62;100997.56;5037980;28;20050;-71
2022/02/20 01:40:12;;;;;;;4.30;0.90;;;;;;;5.00;85.87;101001.44;5038228;28;20082;-73
2022/02/20 01:42:38;;;;;;;7.72;1.25;;;;;;;5.05;85.89;100999.25;5038293;28;20112;-73
2022/02/20 01:45:04;;;;;;;5.88;1.10;;;;;;;5.06;86.81;101003.41;5056051;28;20025;-73
2022/02/20 01:47:29;;;;;;;3.13;0.93;;;;;;;5.11;86.05;100998.66;5038248;28;20380;-73
2022/02/20 01:49:55;;;;;;;4.13;0.90;;;;;;;5.02;86.27;100995.22;5055920;28;20025;-73
2022/02/20 01:52:22;;;;;;;5.65;1.00;;;;;;;5.00;88.72;101001.44;5037841;28;20024;-72
2022/02/20 01:54:47;;;;;;;4.57;1.20;;;;;;;5.05;87.71;101006.94;5037677;28;20020;-73
2022/02/20 01:57:13;;;;;;;5.00;0.77;;;;;;;5.10;87.03;101015.81;5055842;28;20074;-73
2022/02/20 01:59:38;;;;;;;4.45;0.70;;;;;;;5.01;85.83;101024.38;5055972;28;20396;-72
2022/02/20 02:02:04;;;;;;;3.92;0.70;;;;;;;5.13;86.83;101030.09;5037850;28;20040;-73
2022/02/20 02:04:29;;;;;;;5.95;0.50;;;;;;;5.07;88.23;101020.41;5037820;28;20074;-73
2022/02/20 02:06:54;;;;;;;4.95;0.65;;;;;;;4.98;86.99;101007.53;5055666;28;20029;-73
2022/02/20 02:09:20;;;;;;;4.55;0.55;;;;;;;5.12;86.83;101015.66;5055405;28;20464;-73
2022/02/20 02:11:47;;;;;;;5.22;0.68;;;;;;;5.04;86.44;101013.03;5037786;28;20029;-72
2022/02/20 02:14:12;;;;;;;8.30;0.63;;;;;;;5.14;86.17;101009.44;5055432;28;20045;-72
2022/02/20 02:16:38;;;;;;;5.03;0.60;;;;;;;5.12;87.12;101003.66;5037511;28;20028;-72
2022/02/20 02:19:03;;;;;;;4.93;0.60;;;;;;;5.12;85.82;101008.78;5055495;28;20065;-73
2022/02/20 02:21:29;;;;;;;3.90;0.70;;;;;;;5.13;84.68;100999.34;5055131;28;20025;-73
2022/02/20 02:23:54;;;;;;;11.65;2.30;;;;;;;5.05;84.53;100994.94;5037481;28;20025;-73
2022/02/20 02:26:20;;;;;;;6.70;0.60;;;;;;;5.18;84.99;100997.16;5055331;28;20036;-73
2022/02/20 02:28:45;;;;;;;5.45;0.50;;;;;;;5.21;84.01;100989.16;5037351;28;20078;-73
2022/02/20 02:31:12;;;;;;;3.65;0.68;;;;;;;5.24;85.70;100999.13;5055077;28;20032;-73
2022/02/20 02:33:38;;;;;;;4.93;0.40;;;;;;;5.22;86.58;100990.78;5037256;28;20111;-73
2022/02/20 02:36:06;;;;;;;4.63;0.80;;;;;;;5.16;84.52;100992.16;5037114;28;20064;-73
2022/02/20 02:38:31;;;;;;;2.60;0.52;;;;;;;5.18;84.75;100992.03;5054860;28;20074;-73
2022/02/20 02:41:04;;;;;;;3.28;0.70;;;;;;;5.20;84.71;100979.84;5054980;28;20016;-73
2022/02/20 02:43:29;;;;;;;7.35;0.68;;;;;;;5.24;85.31;100975.28;5037149;28;20118;-73
2022/02/20 02:45:55;;;;;;;4.90;0.50;;;;;;;5.26;84.70;100979.25;5054727;28;20126;-73
2022/02/20 02:48:20;;;;;;;2.53;0.50;;;;;;;5.08;86.09;100979.28;5036227;28;20036;-73
2022/02/20 02:50:46;;;;;;;2.67;0.50;;;;;;;5.07;84.12;100982.00;5054774;28;20305;-73
2022/02/20 02:53:11;;;;;;;3.67;0.80;;;;;;;5.02;85.43;100989.31;5055077;28;20401;-73
2022/02/20 02:55:36;;;;;;;8.93;0.70;;;;;;;4.95;85.29;100992.44;5054401;28;20471;-73
2022/02/20 02:58:02;;;;;;;4.22;1.35;;;;;;;5.04;85.38;100995.91;5054394;28;20080;-72
2022/02/20 03:00:31;;;;;;;5.30;0.68;;;;;;;5.01;84.45;100993.63;5036574;28;20021;-73
2022/02/20 03:02:56;;;;;;;7.05;1.25;;;;;;;5.15;83.38;100980.31;5036711;28;20468;-73
2022/02/20 03:05:21;;;;;;;6.90;0.95;;;;;;;5.13;83.46;100978.84;5054365;28;20033;-72
2022/02/20 03:07:47;;;;;;;4.40;0.98;;;;;;;5.14;83.33;100965.06;5054316;28;20376;-72
2022/02/20 03:10:12;;;;;;;4.30;0.93;;;;;;;5.10;84.29;100963.78;5054220;28;20028;-72
2022/02/20 03:12:37;;;;;;;4.90;1.00;;;;;;;4.96;84.33;100960.75;5036280;28;20041;-72
2022/02/20 03:15:03;;;;;;;4.18;0.93;;;;;;;5.00;84.06;100950.22;5053937;28;20139;-73
2022/02/20 03:17:29;;;;;;;4.82;0.68;;;;;;;4.92;83.41;100954.31;5054291;28;20487;-73
2022/02/20 03:19:54;;;;;;;6.60;0.70;;;;;;;4.90;83.29;100943.41;5054222;28;20021;-73
2022/02/20 03:22:20;;;;;;;5.50;0.73;;;;;;;4.94;84.12;100957.53;5054235;28;20070;-73
2022/02/20 03:24:45;;;;;;;7.72;1.13;;;;;;;4.96;83.22;100957.41;5054068;28;20036;-73
2022/02/20 03:27:10;;;;;;;3.25;0.80;;;;;;;4.89;83.54;100954.63;5053958;28;20025;-73
2022/02/20 03:29:37;;;;;;;5.63;1.00;;;;;;;4.92;83.41;100949.19;5036115;28;20413;-72
2022/02/20 03:32:03;;;;;;;8.18;0.88;;;;;;;4.85;83.90;100948.16;5054131;28;20028;-73
2022/02/20 03:34:28;;;;;;;4.22;0.80;;;;;;;4.81;84.39;100946.84;5054124;28;20108;-74
2022/02/20 03:36:54;;;;;;;4.82;0.80;;;;;;;4.73;83.79;100944.19;5036189;28;20040;-72
2022/02/20 03:39:20;;;;;;;7.95;1.35;;;;;;;4.90;83.83;100937.50;5053683;28;20032;-72
2022/02/20 03:41:45;;;;;;;5.68;0.85;;;;;;;4.82;84.01;100930.53;5053881;28;20380;-72
2022/02/20 03:44:10;;;;;;;5.40;0.85;;;;;;;4.74;83.62;100927.88;5035938;28;20025;-73
2022/02/20 03:46:36;;;;;;;4.32;0.90;;;;;;;4.78;83.97;100943.78;5035804;28;20021;-73
2022/02/20 03:49:02;;;;;;;8.52;1.10;;;;;;;4.71;85.46;100926.41;5053896;28;20032;-73
2022/02/20 03:51:27;;;;;;;5.45;1.08;;;;;;;4.73;84.85;100921.97;5035867;28;20376;-73
2022/02/20 03:53:53;;;;;;;2.72;1.33;;;;;;;4.63;84.62;100933.19;5035841;28;20025;-73
2022/02/20 03:56:18;;;;;;;9.32;1.23;;;;;;;4.76;84.73;100923.44;5053579;28;20506;-73
2022/02/20 03:58:43;;;;;;;6.68;1.42;;;;;;;4.84;84.30;100922.72;5053552;28;20036;-73
2022/02/20 04:01:08;;;;;;;5.50;1.10;;;;;;;4.79;84.15;100928.25;5053344;28;20538;-72
2022/02/20 04:03:34;;;;;;;5.55;1.40;;;;;;;4.73;84.44;100928.84;5035596;28;20052;-72
2022/02/20 04:06:00;;;;;;;5.90;1.17;;;;;;;4.69;85.00;100925.78;5053349;28;20058;-72
2022/02/20 04:08:25;;;;;;;6.15;1.30;;;;;;;4.61;85.07;100920.56;5053611;28;20057;-71
2022/02/20 04:10:51;;;;;;;10.60;1.80;;;;;;;4.65;85.30;100903.97;5053587;28;20442;-72
2022/02/20 04:13:16;;;;;;;4.30;1.55;;;;;;;4.67;85.49;100904.63;5053447;28;20479;-72
2022/02/20 04:15:41;;;;;;;5.45;1.40;;;;;;;4.52;86.12;100911.19;5053922;28;20065;-73
2022/02/20 04:18:07;;;;;;;9.48;1.83;;;;;;;4.67;85.47;100907.19;5035632;28;20016;-73
2022/02/20 04:20:32;;;;;;;9.30;1.70;;;;;;;4.56;85.78;100894.59;5035582;28;20025;-72
2022/02/20 04:22:57;;;;;;;6.00;1.70;;;;;;;4.48;86.10;100895.31;5035515;28;20046;-73
2022/02/20 04:25:22;;;;;;;7.28;1.60;;;;;;;4.67;86.51;100898.72;5035497;28;20079;-72
2022/02/20 04:27:48;;;;;;;7.03;1.67;;;;;;;4.66;85.73;100895.34;5035238;28;20024;-73
2022/02/20 04:30:16;;;;;;;8.35;1.83;;;;;;;4.53;85.99;100882.88;5053392;28;20039;-72
2022/02/20 04:32:41;;;;;;;7.10;2.30;;;;;;;4.50;87.30;100898.53;5053276;28;20021;-73
2022/02/20 04:35:07;;;;;;;7.10;2.25;;;;;;;4.55;86.38;100887.88;5053395;28;20499;-72
2022/02/20 04:37:32;;;;;;;10.98;2.55;;;;;;;4.43;86.64;100877.03;5034760;28;20021;-72
2022/02/20 04:40:00;;;;;;;6.43;2.50;;;;;;;4.34;87.88;100877.88;5051961;28;20478;-73
2022/02/20 04:42:25;;;;;;;11.70;3.80;;;;;;;4.43;87.93;100865.97;5051862;28;20070;-72
2022/02/20 04:44:50;;;;;;;7.93;2.88;;;;;;;4.39;87.93;100862.91;5053002;28;20104;-72
2022/02/20 04:47:15;;;;;;;8.98;2.88;;;;;;;4.38;88.12;100858.75;5035321;28;20066;-72
2022/02/20 04:49:41;;;;;;;9.07;3.13;;;;;;;4.27;89.01;100843.59;5035415;28;20064;-73
2022/02/20 04:52:06;;;;;;;11.48;4.00;;;;;;;4.19;89.98;100830.72;5053306;28;20357;-73
2022/02/20 04:54:31;;;;;;;8.98;3.30;;;;;;;4.16;90.63;100818.22;5053358;28;20045;-72
2022/02/20 04:56:57;;;;;;;9.70;3.80;;;;;;;4.05;91.89;100837.13;5035488;28;20068;-73
2022/02/20 04:59:22;;;;;;;10.35;4.20;;;;;;;3.97;91.59;100807.16;5054288;28;20175;-72
2022/02/20 05:01:47;;;;;;;8.45;3.97;;;;;;;4.01;91.94;100802.56;5057195;28;20060;-72
2022/02/20 05:04:13;;;;;;;8.82;4.40;;;;;;;4.09;92.10;100802.66;5039165;28;20410;-73
2022/02/20 05:06:39;;;;;;;13.20;5.22;;;;;;;4.04;92.55;100797.16;5040387;28;20021;-72
2022/02/20 05:09:04;;;;;;;8.88;4.90;;;;;;;4.01;92.69;100782.91;5058201;28;20028;-73
2022/02/20 05:11:30;;;;;;;13.02;5.03;;;;;;;3.99;93.46;100774.56;5060771;28;20032;-73
2022/02/20 05:13:58;;;;;;;14.52;5.57;;;;;;;3.98;93.82;100772.16;5061726;28;20377;-73
2022/02/20 05:16:24;;;;;;;14.05;5.43;;;;;;;4.07;94.38;100741.41;5043343;28;20395;-73
2022/02/20 05:18:49;;;;;;;11.70;5.75;;;;;;;4.00;94.16;100734.44;5061706;28;20483;-73
2022/02/20 05:21:14;;;;;;;14.18;6.03;;;;;;;3.96;94.36;100710.94;5045155;28;20020;-72
2022/02/20 05:23:40;;;;;;;12.93;5.97;;;;;;;3.92;94.32;100698.59;5053074;28;20045;-75
2022/02/20 05:26:05;;;;;;;13.32;5.60;;;;;;;3.96;95.48;100680.25;5056467;28;20484;-74
2022/02/20 05:28:30;;;;;;;14.07;6.07;;;;;;;3.89;95.87;100675.88;5074264;28;20029;-74
2022/02/20 05:30:56;;;;;;;13.88;5.50;;;;;;;3.91;95.88;100672.19;5072667;28;20033;-75
2022/02/20 05:33:21;;;;;;;18.23;6.30;;;;;;;3.94;95.93;100660.88;5073023;28;20036;-74
2022/02/20 05:35:46;;;;;;;12.90;6.28;;;;;;;4.07;96.00;100649.34;5072742;28;20029;-76
2022/02/20 05:38:12;;;;;;;12.27;5.65;;;;;;;4.11;95.61;100646.47;5071490;28;20047;-77
2022/02/20 05:40:38;;;;;;;14.60;6.45;;;;;;;4.01;96.09;100642.25;5066298;28;20150;-73
2022/02/20 05:43:05;;;;;;;17.90;7.15;;;;;;;4.12;96.25;100643.78;5041041;28;20028;-73
2022/02/20 05:45:31;;;;;;;18.92;6.75;;;;;;;4.06;96.39;100632.41;5058312;28;20454;-72
2022/02/20 05:47:56;;;;;;;17.38;7.22;;;;;;;4.14;96.99;100606.06;5057503;28;20116;-72
2022/02/20 05:50:21;;;;;;;15.38;7.35;;;;;;;4.08;97.13;100606.66;5057765;28;20033;-73
2022/02/20 05:52:47;;;;;;;18.83;8.00;;;;;;;4.25;97.75;100620.38;5039374;28;20021;-72
2022/02/20 05:55:13;;;;;;;21.55;8.30;;;;;;;4.21;96.99;100616.53;5038758;28;20543;-72
2022/02/20 05:57:57;;;;;;;22.48;8.90;;;;;;;4.29;97.70;100602.03;5038545;28;20021;-73
2022/02/20 06:00:24;;;;;;;22.17;9.82;;;;;;;4.32;98.15;100597.56;5038894;28;20029;-72
2022/02/20 06:02:50;;;;;;;21.40;8.98;;;;;;;4.34;97.55;100587.97;5056148;28;20029;-72
2022/02/20 06:05:16;;;;;;;19.48;8.85;;;;;;;4.36;98.15;100586.06;5038480;28;20363;-73
2022/02/20 06:07:41;;;;;;;19.77;9.18;;;;;;;4.41;98.20;100589.78;5038189;28;20025;-73
2022/02/20 06:10:08;;;;;;;22.98;9.98;;;;;;;4.38;98.50;100561.94;5055976;28;20074;-72
2022/02/20 06:12:34;;;;;;;22.52;9.80;;;;;;;4.44;99.21;100563.09;5037770;28;20025;-73
2022/02/20 06:15:00;;;;;;;24.85;9.80;;;;;;;4.55;98.73;100577.41;5055370;28;20053;-73
2022/02/20 06:17:25;;;;;;;20.98;9.38;;;;;;;4.66;99.00;100570.25;5037303;28;20025;-72
2022/02/20 06:19:51;;;;;;;17.95;8.43;;;;;;;4.60;99.20;100572.59;5055642;28;20059;-73
2022/02/20 06:22:16;;;;;;;19.30;8.07;;;;;;;4.72;99.60;100574.75;5036109;28;20032;-73
2022/02/20 06:24:41;;;;;;;25.35;10.23;;;;;;;4.72;99.52;100553.47;5055555;28;20036;-73
2022/02/20 06:27:07;;;;;;;15.88;8.52;;;;;;;4.68;99.87;100552.97;5037391;28;20025;-73
2022/02/20 06:29:32;;;;;;;28.67;10.77;;;;;;;4.83;100.00;100557.50;5055549;28;20025;-73
2022/02/20 06:31:58;;;;;;;16.67;9.15;;;;;;;4.90;99.76;100541.38;5037239;28;20033;-72
2022/02/20 06:34:24;;;;;;;20.00;9.20;;;;;;;5.10;99.90;100551.34;5055152;28;20024;-72
2022/02/20 06:36:50;;;;;;;19.88;8.73;;;;;;;5.19;99.76;100545.28;5037314;28;20021;-72
2022/02/20 06:39:16;;;;;;;16.30;8.40;;;;;;;5.23;100.00;100545.75;5055118;28;20107;-72
2022/02/20 06:41:41;;;;;;;16.92;8.98;;;;;;;5.29;100.00;100543.38;5037152;28;20505;-72
2022/02/20 06:44:06;;;;;;;16.13;8.10;;;;;;;5.34;100.00;100532.66;5054947;28;20337;-72
2022/02/20 06:46:32;;;;;;;16.35;8.48;;;;;;;5.45;100.00;100514.41;5055077;28;20025;-73
2022/02/20 06:48:57;;;;;;;15.30;7.63;;;;;;;5.55;100.00;100527.06;5054979;28;20104;-72
2022/02/20 06:51:23;;;;;;;14.18;7.10;;;;;;;5.60;100.00;100519.69;5054896;28;20360;-73
2022/02/20 06:53:48;;;;;;;18.30;8.02;;;;;;;5.66;100.00;100519.03;5036769;28;20028;-72
2022/02/20 06:56:14;;;;;;;16.15;7.18;;;;;;;5.72;100.00;100518.41;5054821;28;20029;-74
2022/02/20 06:58:39;;;;;;;16.38;6.82;;;;;;;5.74;100.00;100518.25;5037064;28;20119;-74
2022/02/20 07:01:05;;;;;;;17.95;6.85;;;;;;;5.78;100.00;100511.81;5054600;28;20040;-73
2022/02/20 07:03:30;;;;;;;20.35;6.53;;;;;;;5.84;100.00;100512.00;5054682;28;20021;-74
2022/02/20 07:05:55;;;;;;;13.15;6.22;;;;;;;5.94;100.00;100500.78;5036970;28;20025;-73
2022/02/20 07:08:21;;;;;;;19.00;7.05;;;;;;;6.00;100.00;100503.50;5036424;28;20033;-73
2022/02/20 07:10:46;;;;;;;13.70;6.60;;;;;;;6.10;100.00;100509.25;5036628;28;20031;-72
2022/02/20 07:13:11;;;;;;;13.93;6.10;;;;;;;6.15;100.00;100513.88;5036610;28;20032;-73
2022/02/20 07:15:36;;;;;;;14.10;5.82;;;;;;;6.18;100.00;100477.63;5036355;28;20049;-74
2022/02/20 07:18:02;;;;;;;14.95;6.30;;;;;;;6.34;100.00;100497.31;5054320;28;20013;-72
2022/02/20 07:20:27;;;;;;;13.57;5.53;;;;;;;6.46;100.00;100492.63;5054240;28;20384;-73
2022/02/20 07:22:53;;;;;;;12.10;5.60;;;;;;;6.51;100.00;100480.09;5054174;28;20074;-73
2022/02/20 07:25:19;;;;;;;14.48;5.88;;;;;;;6.57;100.00;100476.03;5035827;28;20085;-73
2022/02/20 07:27:45;;;;;;;15.00;5.38;;;;;;;6.68;100.00;100473.91;5053763;28;20021;-73
2022/02/20 07:30:13;;;;;;;13.40;5.13;;;;;;;6.85;100.00;100482.31;5035885;28;20108;-72
2022/02/20 07:32:38;;;;;;;13.07;4.78;;;;;;;6.88;100.00;100484.53;5035938;28;20037;-73
2022/02/20 07:35:05;;;;;;;14.10;4.60;;;;;;;6.96;100.00;100463.13;5053387;28;20738;-73
2022/02/20 07:37:31;;;;;;;11.93;3.90;;;;;;;7.07;100.00;100431.91;5053579;28;20025;-72
2022/02/20 07:39:57;;;;;;;16.77;4.93;;;;;;;7.21;100.00;100440.63;5036073;28;20090;-73
2022/02/20 07:42:22;;;;;;;12.38;4.22;;;;;;;7.29;100.00;100440.56;5036120;28;20108;-72
2022/02/20 07:44:48;;;;;;;16.30;4.40;;;;;;;7.37;100.00;100426.84;5054106;28;20067;-74
2022/02/20 07:47:13;;;;;;;11.80;4.20;;;;;;;7.45;100.00;100434.47;5035797;28;20074;-72
2022/02/20 07:49:38;;;;;;;13.80;3.97;;;;;;;7.54;100.00;100435.19;5036052;28;20476;-74
2022/02/20 07:52:04;;;;;;;16.85;3.53;;;;;;;7.64;100.00;100440.91;5053841;28;20051;-73
2022/02/20 07:54:29;;;;;;;13.80;4.00;;;;;;;7.69;100.00;100447.13;5035909;28;20036;-73
2022/02/20 07:56:54;;;;;;;22.30;4.03;;;;;;;7.80;100.00;100433.03;5036066;28;20375;-73
2022/02/20 07:59:20;;;;;;;20.98;3.95;;;;;;;7.94;100.00;100446.06;5035866;28;20037;-73
2022/02/20 08:01:47;;;;;;;22.45;3.60;;;;;;;8.02;100.00;100449.34;5053606;28;20104;-72
2022/02/20 08:04:14;;;;;;;19.95;3.47;;;;;;;8.11;100.00;100437.16;5036049;28;20029;-72
2022/02/20 08:06:39;;;;;;;22.38;3.60;;;;;;;8.19;100.00;100431.94;5035704;28;20039;-72
2022/02/20 08:09:05;;;;;;;23.08;4.40;;;;;;;8.27;100.00;100429.25;5035668;28;20116;-72
2022/02/20 08:11:31;;;;;;;20.42;3.30;;;;;;;8.36;100.00;100443.63;5035871;28;20441;-73
2022/02/20 08:13:57;;;;;;;23.40;4.00;;;;;;;8.45;99.21;100433.25;5053342;28;20056;-73
2022/02/20 08:16:23;;;;;;;29.63;4.35;;;;;;;8.46;99.66;100427.94;5053633;28;20025;-73
2022/02/20 08:18:48;;;;;;;29.75;3.70;;;;;;;8.58;98.82;100456.59;5053607;28;20032;-72
2022/02/20 08:21:13;;;;;;;27.05;3.67;;;;;;;8.63;98.93;100456.84;5035623;28;20063;-72
2022/02/20 08:23:39;;;;;;;29.92;4.00;;;;;;;8.66;98.44;100451.34;5053295;28;20029;-72
2022/02/20 08:26:04;;;;;;;24.70;3.63;;;;;;;8.71;98.41;100440.47;5035624;28;20364;-74
2022/02/20 08:28:29;;;;;;;34.67;4.85;;;;;;;8.75;97.71;100446.88;5035438;28;20056;-73
2022/02/20 08:30:54;;;;;;;36.35;4.63;;;;;;;8.78;97.29;100431.84;5053451;28;20024;-73
2022/02/20 08:33:20;;;;;;;40.22;4.95;;;;;;;8.77;97.05;100432.00;5035540;28;20033;-72
2022/02/20 08:35:45;;;;;;;35.33;4.55;;;;;;;8.88;97.19;100436.66;5053436;28;20120;-71
2022/02/20 08:38:11;;;;;;;38.08;5.32;;;;;;;8.89;96.86;100422.81;5034592;28;20024;-71
2022/02/20 08:40:39;;;;;;;43.30;5.05;;;;;;;8.94;96.33;100420.47;5052630;28;20029;-73
2022/02/20 08:43:05;;;;;;;44.70;5.65;;;;;;;9.00;95.66;100412.00;5033819;28;20115;-74
2022/02/20 08:45:30;;;;;;;42.00;5.75;;;;;;;9.03;95.40;100416.81;5035935;28;20480;-74
2022/02/20 08:47:55;;;;;;;36.33;4.65;;;;;;;9.10;94.94;100429.75;5038994;28;20032;-74
2022/02/20 08:50:21;;;;;;;41.10;4.97;;;;;;;9.12;94.31;100412.31;5057181;28;20024;-72
2022/02/20 08:52:46;;;;;;;38.88;4.45;;;;;;;9.08;94.72;100410.28;5057045;28;20096;-72
2022/02/20 08:55:12;;;;;;;36.05;4.82;;;;;;;9.15;94.30;100421.44;5038967;28;20032;-72
2022/02/20 08:57:37;;;;;;;39.50;5.38;;;;;;;9.23;93.79;100424.69;5038971;28;20021;-73
2022/02/20 09:00:06;;;;;;;45.75;5.68;;;;;;;9.26;93.24;100424.34;5039301;28;20083;-73
2022/02/20 09:02:31;;;;;;;29.63;4.55;;;;;;;9.28;92.97;100411.25;5039056;28;20024;-73
2022/02/20 09:04:56;;;;;;;37.28;4.85;;;;;;;9.31;93.31;100415.22;5056903;28;20079;-73
2022/02/20 09:07:22;;;;;;;38.00;5.28;;;;;;;9.32;92.87;100430.53;5038971;28;20071;-73
2022/02/20 09:09:47;;;;;;;39.25;5.13;;;;;;;9.37;92.44;100406.75;5038832;28;20033;-72
2022/02/20 09:12:12;;;;;;;44.63;5.35;;;;;;;9.40;92.08;100429.56;5038464;28;20028;-71
2022/02/20 09:14:38;;;;;;;41.70;5.50;;;;;;;9.39;92.11;100448.63;5056466;28;20492;-71
2022/02/20 09:17:03;;;;;;;31.65;5.03;;;;;;;9.51;91.44;100428.25;5038951;28;20031;-73
2022/02/20 09:19:29;;;;;;;36.78;5.03;;;;;;;9.43;91.24;100419.66;5038706;28;20487;-70
2022/02/20 09:21:55;;;;;;;37.30;5.10;;;;;;;9.46;91.27;100424.44;5056410;28;20162;-72
2022/02/20 09:24:20;;;;;;;39.28;5.45;;;;;;;9.40;91.22;100407.16;5038584;28;20064;-72
2022/02/20 09:26:46;;;;;;;27.35;4.28;;;;;;;9.52;91.17;100416.94;5038334;28;20029;-72
2022/02/20 09:29:12;;;;;;;46.00;6.25;;;;;;;9.52;91.08;100422.09;5056341;28;20029;-72
2022/02/20 09:31:37;;;;;;;37.70;5.93;;;;;;;9.59;90.85;100428.13;5038564;28;20029;-72
2022/02/20 09:34:02;;;;;;;41.70;5.00;;;;;;;9.61;90.70;100413.22;5056427;28;20377;-72
2022/02/20 09:36:27;;;;;;;40.78;5.95;;;;;;;9.60;90.49;100427.91;5056379;28;20100;-72
2022/02/20 09:38:56;;;;;;;36.33;5.45;;;;;;;9.66;89.79;100429.75;5038580;28;20033;-73
2022/02/20 09:41:28;;;;;;;39.60;5.15;;;;;;;9.67;90.35;100421.03;5038365;28;20063;-70
2022/02/20 09:43:55;;;;;;;41.72;5.47;;;;;;;9.77;89.81;100410.38;5038320;28;20112;-71
2022/02/20 09:46:21;;;;;;;48.60;6.07;;;;;;;9.76;89.43;100379.59;5038114;28;20044;-71
2022/02/20 09:48:51;;;;;;;40.50;5.25;;;;;;;9.70;89.39;100400.00;5055956;28;20079;-69
2022/02/20 09:51:16;;;;;;;36.25;5.30;;;;;;;9.79;88.80;100403.22;5055938;28;20036;-71
2022/02/20 09:53:41;;;;;;;39.72;5.65;;;;;;;9.76;88.76;100405.41;5038132;28;20024;-70
2022/02/20 09:56:07;;;;;;;44.45;5.63;;;;;;;9.66;89.69;100410.88;5037831;28;20029;-70
2022/02/20 09:58:32;;;;;;;37.88;4.93;;;;;;;9.76;88.46;100398.47;5038315;28;20025;-71
2022/02/20 10:01:09;;;;;;;41.88;6.00;;;;;;;9.74;89.08;100394.47;5055922;28;20025;-70
2022/02/20 10:03:41;;;;;;;46.38;6.22;;;;;;;9.71;88.73;100411.91;5037873;28;20067;-69
2022/02/20 10:06:10;;;;;;;47.30;7.50;;;;;;;9.75;88.59;100419.28;5037810;28;20029;-70
2022/02/20 10:08:49;;;;;;;47.53;6.07;;;;;;;9.74;88.87;100408.16;5055844;28;20029;-70
2022/02/20 10:11:18;;;;;;;43.13;5.80;;;;;;;9.76;88.41;100405.41;5055427;28;20024;-69
2022/02/20 10:13:46;;;;;;;47.72;6.10;;;;;;;9.77;88.74;100419.91;5037273;28;20053;-71
2022/02/20 10:16:22;;;;;;;40.97;6.32;;;;;;;9.67;89.21;100413.28;5037556;28;20025;-70
2022/02/20 10:18:49;;;;;;;42.47;5.50;;;;;;;9.73;88.97;100423.84;5037628;28;20044;-70
2022/02/20 10:21:20;;;;;;;49.53;6.63;;;;;;;9.69;90.04;100423.41;5055442;28;20451;-71
2022/02/20 10:23:45;;;;;;;57.05;6.53;;;;;;;9.67;89.40;100443.47;5037455;28;20033;-70
2022/02/20 10:26:13;;;;;;;45.22;6.82;;;;;;;9.55;90.54;100430.28;5037407;28;20021;-71
2022/02/20 10:28:57;;;;;;;37.25;6.10;;;;;;;9.48;91.74;100437.97;5037258;28;20464;-70
2022/02/20 10:31:42;;;;;;;45.15;6.28;;;;;;;9.55;91.35;100448.34;5055318;28;20036;-70
2022/02/20 10:34:29;;;;;;;62.78;8.55;;;;;;;9.51;92.11;100451.47;5037201;28;20009;-70
2022/02/20 10:36:56;;;;;;;53.35;6.68;;;;;;;9.42;92.87;100428.41;5054866;28;20498;-69
2022/02/20 10:39:23;;;;;;;47.13;6.50;;;;;;;9.35;93.94;100425.00;5055147;28;20025;-72
2022/02/20 10:41:49;;;;;;;47.97;6.38;;;;;;;9.29;93.72;100433.44;5055191;28;20036;-72
2022/02/20 10:44:15;;;;;;;58.03;7.03;;;;;;;9.15;94.01;100409.38;5037098;28;20028;-72
2022/02/20 10:46:41;;;;;;;47.53;7.35;;;;;;;9.33;94.48;100423.59;5037165;28;20069;-72
2022/02/20 10:49:06;;;;;;;48.33;6.28;;;;;;;9.29;94.44;100425.72;5037049;28;20111;-73
2022/02/20 10:51:39;;;;;;;44.95;5.97;;;;;;;9.20;94.60;100419.91;5054823;28;20104;-73
2022/02/20 10:54:05;;;;;;;49.10;6.65;;;;;;;9.21;95.85;100407.81;5037403;28;20033;-73
2022/02/20 10:56:41;;;;;;;48.25;6.90;;;;;;;9.19;95.93;100405.41;5036810;28;20025;-72
2022/02/20 10:59:07;;;;;;;44.28;6.75;;;;;;;9.15;96.33;100401.63;5054661;28;20364;-72
2022/02/20 11:01:32;;;;;;;41.10;6.32;;;;;;;9.15;96.16;100398.22;5036738;28;20025;-72
2022/02/20 11:04:10;;;;;;;46.80;6.35;;;;;;;9.12;96.43;100396.03;5054823;28;20495;-72
2022/02/20 11:06:37;;;;;;;45.30;6.07;;;;;;;9.14;96.09;100394.06;5036702;28;20133;-75
2022/02/20 11:09:04;;;;;;;45.33;6.53;;;;;;;9.13;95.92;100388.13;5053910;28;20067;-74
2022/02/20 11:11:40;;;;;;;42.95;5.75;;;;;;;9.15;95.58;100364.72;5054474;28;20029;-73
2022/02/20 11:14:10;;;;;;;48.95;6.28;;;;;;;9.17;96.13;100370.50;5054098;28;20124;-73
2022/02/20 11:16:39;;;;;;;50.33;6.88;;;;;;;9.17;95.97;100367.91;5036594;28;20496;-72
2022/02/20 11:19:05;;;;;;;42.05;6.03;;;;;;;9.21;95.76;100366.56;5036532;28;20083;-72
2022/02/20 11:21:36;;;;;;;48.40;5.82;;;;;;;9.20;95.87;100364.97;5054324;28;20029;-72